sensor_id;sensor_type;location;lat;lon;timestamp;P1;durP1;ratioP1;P2;durP2;ratioP2
18933;SDS011;9599;53.706;10.384;2022-10-22T00:00:56;42.20;;;19.90;;
18933;SDS011;9599;53.706;10.384;2022-10-22T00:03:24;45.00;;;19.83;;
18933;SDS011;9599;53.706;10.384;2022-10-22T00:05:52;47.07;;;20.83;;
18933;SDS011;9599;53.706;10.384;2022-10-22T00:08:20;47.17;;;20.80;;
18933;SDS011;9599;53.706;10.384;2022-10-22T00:10:48;46.67;;;20.90;;
18933;SDS011;9599;53.706;10.384;2022-10-22T00:13:18;47.83;;;19.77;;
18933;SDS011;9599;53.706;10.384;2022-10-22T00:15:46;44.23;;;20.07;;
18933;SDS011;9599;53.706;10.384;2022-10-22T00:18:16;45.57;;;20.70;;
18933;SDS011;9599;53.706;10.384;2022-10-22T00:20:43;44.83;;;20.40;;
18933;SDS011;9599;53.706;10.384;2022-10-22T00:23:12;44.53;;;20.20;;
18933;SDS011;9599;53.706;10.384;2022-10-22T00:25:40;44.47;;;19.67;;
18933;SDS011;9599;53.706;10.384;2022-10-22T00:28:08;44.17;;;19.70;;
18933;SDS011;9599;53.706;10.384;2022-10-22T00:30:36;40.50;;;19.23;;
18933;SDS011;9599;53.706;10.384;2022-10-22T00:33:04;47.00;;;18.50;;
18933;SDS011;9599;53.706;10.384;2022-10-22T00:35:34;47.07;;;19.70;;
18933;SDS011;9599;53.706;10.384;2022-10-22T00:38:02;43.37;;;19.80;;
18933;SDS011;9599;53.706;10.384;2022-10-22T00:40:30;44.00;;;19.27;;
18933;SDS011;9599;53.706;10.384;2022-10-22T00:42:58;42.80;;;18.70;;
18933;SDS011;9599;53.706;10.384;2022-10-22T00:45:26;42.23;;;18.50;;
18933;SDS011;9599;53.706;10.384;2022-10-22T00:47:56;46.43;;;18.97;;
18933;SDS011;9599;53.706;10.384;2022-10-22T00:50:29;49.07;;;20.03;;
18933;SDS011;9599;53.706;10.384;2022-10-22T00:53:02;44.33;;;19.60;;
18933;SDS011;9599;53.706;10.384;2022-10-22T00:55:33;45.57;;;19.87;;
18933;SDS011;9599;53.706;10.384;2022-10-22T00:58:01;48.90;;;20.77;;
18933;SDS011;9599;53.706;10.384;2022-10-22T01:00:30;44.20;;;19.90;;
18933;SDS011;9599;53.706;10.384;2022-10-22T01:02:58;43.70;;;20.10;;
18933;SDS011;9599;53.706;10.384;2022-10-22T01:05:27;46.53;;;20.33;;
18933;SDS011;9599;53.706;10.384;2022-10-22T01:07:57;47.13;;;20.83;;
18933;SDS011;9599;53.706;10.384;2022-10-22T01:10:30;49.83;;;20.83;;
18933;SDS011;9599;53.706;10.384;2022-10-22T01:13:15;45.47;;;19.97;;
18933;SDS011;9599;53.706;10.384;2022-10-22T01:15:54;41.97;;;19.90;;
18933;SDS011;9599;53.706;10.384;2022-10-22T01:18:30;47.43;;;20.60;;
18933;SDS011;9599;53.706;10.384;2022-10-22T01:21:07;47.80;;;20.20;;
18933;SDS011;9599;53.706;10.384;2022-10-22T01:27:11;46.90;;;20.47;;
18933;SDS011;9599;53.706;10.384;2022-10-22T01:29:48;47.73;;;20.30;;
18933;SDS011;9599;53.706;10.384;2022-10-22T01:32:18;44.50;;;19.67;;
18933;SDS011;9599;53.706;10.384;2022-10-22T01:34:49;45.47;;;20.37;;
18933;SDS011;9599;53.706;10.384;2022-10-22T01:37:20;47.50;;;20.47;;
18933;SDS011;9599;53.706;10.384;2022-10-22T01:39:50;51.07;;;21.77;;
18933;SDS011;9599;53.706;10.384;2022-10-22T01:42:19;49.37;;;20.57;;
18933;SDS011;9599;53.706;10.384;2022-10-22T01:44:48;47.90;;;20.00;;
18933;SDS011;9599;53.706;10.384;2022-10-22T01:47:19;47.43;;;20.13;;
18933;SDS011;9599;53.706;10.384;2022-10-22T01:52:49;49.90;;;20.70;;
18933;SDS011;9599;53.706;10.384;2022-10-22T01:55:26;45.60;;;19.90;;
18933;SDS011;9599;53.706;10.384;2022-10-22T01:58:01;42.67;;;19.73;;
18933;SDS011;9599;53.706;10.384;2022-10-22T02:00:38;46.50;;;19.93;;
18933;SDS011;9599;53.706;10.384;2022-10-22T02:03:12;44.60;;;19.57;;
18933;SDS011;9599;53.706;10.384;2022-10-22T02:05:50;40.70;;;18.77;;
18933;SDS011;9599;53.706;10.384;2022-10-22T02:08:22;45.03;;;19.43;;
18933;SDS011;9599;53.706;10.384;2022-10-22T02:10:53;43.33;;;18.63;;
18933;SDS011;9599;53.706;10.384;2022-10-22T02:13:24;40.63;;;18.77;;
18933;SDS011;9599;53.706;10.384;2022-10-22T02:15:55;43.83;;;19.10;;
18933;SDS011;9599;53.706;10.384;2022-10-22T02:18:25;44.93;;;19.83;;
18933;SDS011;9599;53.706;10.384;2022-10-22T02:20:56;38.43;;;18.47;;
18933;SDS011;9599;53.706;10.384;2022-10-22T02:23:27;39.13;;;18.27;;
18933;SDS011;9599;53.706;10.384;2022-10-22T02:25:59;44.43;;;19.23;;
18933;SDS011;9599;53.706;10.384;2022-10-22T02:28:35;42.97;;;19.03;;
18933;SDS011;9599;53.706;10.384;2022-10-22T02:31:09;43.83;;;19.53;;
18933;SDS011;9599;53.706;10.384;2022-10-22T02:33:41;43.90;;;19.37;;
18933;SDS011;9599;53.706;10.384;2022-10-22T02:36:13;49.17;;;19.47;;
18933;SDS011;9599;53.706;10.384;2022-10-22T02:38:42;43.83;;;19.43;;
18933;SDS011;9599;53.706;10.384;2022-10-22T02:41:12;45.70;;;19.27;;
18933;SDS011;9599;53.706;10.384;2022-10-22T02:43:42;44.73;;;18.00;;
18933;SDS011;9599;53.706;10.384;2022-10-22T02:46:13;38.13;;;18.30;;
18933;SDS011;9599;53.706;10.384;2022-10-22T02:48:41;40.07;;;18.37;;
18933;SDS011;9599;53.706;10.384;2022-10-22T02:51:09;38.27;;;17.73;;
18933;SDS011;9599;53.706;10.384;2022-10-22T02:53:37;35.17;;;17.30;;
18933;SDS011;9599;53.706;10.384;2022-10-22T02:56:05;35.73;;;16.33;;
18933;SDS011;9599;53.706;10.384;2022-10-22T02:58:33;38.97;;;16.60;;
18933;SDS011;9599;53.706;10.384;2022-10-22T03:01:01;37.40;;;15.03;;
18933;SDS011;9599;53.706;10.384;2022-10-22T03:03:31;33.33;;;15.70;;
18933;SDS011;9599;53.706;10.384;2022-10-22T03:05:59;30.97;;;15.47;;
18933;SDS011;9599;53.706;10.384;2022-10-22T03:08:27;32.70;;;15.30;;
18933;SDS011;9599;53.706;10.384;2022-10-22T03:10:55;32.67;;;14.83;;
18933;SDS011;9599;53.706;10.384;2022-10-22T03:13:23;26.07;;;14.20;;
18933;SDS011;9599;53.706;10.384;2022-10-22T03:15:51;27.73;;;13.97;;
18933;SDS011;9599;53.706;10.384;2022-10-22T03:18:19;38.20;;;14.47;;
18933;SDS011;9599;53.706;10.384;2022-10-22T03:20:48;28.93;;;14.03;;
18933;SDS011;9599;53.706;10.384;2022-10-22T03:23:17;34.93;;;16.37;;
18933;SDS011;9599;53.706;10.384;2022-10-22T03:25:46;35.73;;;15.80;;
18933;SDS011;9599;53.706;10.384;2022-10-22T03:28:16;32.00;;;15.87;;
18933;SDS011;9599;53.706;10.384;2022-10-22T03:30:44;27.93;;;14.13;;
18933;SDS011;9599;53.706;10.384;2022-10-22T03:33:12;26.03;;;13.33;;
18933;SDS011;9599;53.706;10.384;2022-10-22T03:35:41;30.37;;;14.80;;
18933;SDS011;9599;53.706;10.384;2022-10-22T03:38:14;34.33;;;16.40;;
18933;SDS011;9599;53.706;10.384;2022-10-22T03:40:42;30.20;;;15.50;;
18933;SDS011;9599;53.706;10.384;2022-10-22T03:43:11;38.47;;;16.87;;
18933;SDS011;9599;53.706;10.384;2022-10-22T03:45:39;34.83;;;16.40;;
18933;SDS011;9599;53.706;10.384;2022-10-22T03:48:07;36.90;;;16.40;;
18933;SDS011;9599;53.706;10.384;2022-10-22T03:50:35;40.33;;;17.03;;
18933;SDS011;9599;53.706;10.384;2022-10-22T03:53:03;43.10;;;17.10;;
18933;SDS011;9599;53.706;10.384;2022-10-22T03:55:33;42.30;;;17.60;;
18933;SDS011;9599;53.706;10.384;2022-10-22T03:58:03;38.20;;;16.70;;
18933;SDS011;9599;53.706;10.384;2022-10-22T04:00:32;40.10;;;17.97;;
18933;SDS011;9599;53.706;10.384;2022-10-22T04:03:01;34.10;;;16.30;;
18933;SDS011;9599;53.706;10.384;2022-10-22T04:05:29;45.27;;;17.00;;
18933;SDS011;9599;53.706;10.384;2022-10-22T04:07:59;30.53;;;15.67;;
18933;SDS011;9599;53.706;10.384;2022-10-22T04:10:27;32.47;;;16.40;;
18933;SDS011;9599;53.706;10.384;2022-10-22T04:12:56;33.47;;;15.67;;
18933;SDS011;9599;53.706;10.384;2022-10-22T04:15:24;30.70;;;15.77;;
18933;SDS011;9599;53.706;10.384;2022-10-22T04:17:54;28.63;;;15.47;;
18933;SDS011;9599;53.706;10.384;2022-10-22T04:20:22;29.40;;;15.30;;
18933;SDS011;9599;53.706;10.384;2022-10-22T04:22:50;32.33;;;14.90;;
18933;SDS011;9599;53.706;10.384;2022-10-22T04:25:18;32.20;;;14.40;;
18933;SDS011;9599;53.706;10.384;2022-10-22T04:27:46;29.37;;;14.77;;
18933;SDS011;9599;53.706;10.384;2022-10-22T04:30:15;37.03;;;14.40;;
18933;SDS011;9599;53.706;10.384;2022-10-22T04:32:43;27.50;;;14.90;;
18933;SDS011;9599;53.706;10.384;2022-10-22T04:35:11;31.13;;;14.90;;
18933;SDS011;9599;53.706;10.384;2022-10-22T04:37:39;36.67;;;14.23;;
18933;SDS011;9599;53.706;10.384;2022-10-22T04:40:08;41.93;;;14.43;;
18933;SDS011;9599;53.706;10.384;2022-10-22T04:42:37;24.70;;;13.17;;
18933;SDS011;9599;53.706;10.384;2022-10-22T04:45:06;25.17;;;13.77;;
18933;SDS011;9599;53.706;10.384;2022-10-22T04:47:36;231.33;;;19.30;;
18933;SDS011;9599;53.706;10.384;2022-10-22T04:50:05;24.33;;;13.70;;
18933;SDS011;9599;53.706;10.384;2022-10-22T04:52:33;72.90;;;16.10;;
18933;SDS011;9599;53.706;10.384;2022-10-22T04:55:01;245.03;;;20.73;;
18933;SDS011;9599;53.706;10.384;2022-10-22T04:57:29;138.13;;;17.50;;
18933;SDS011;9599;53.706;10.384;2022-10-22T04:59:58;135.43;;;17.23;;
18933;SDS011;9599;53.706;10.384;2022-10-22T05:02:26;49.80;;;14.53;;
18933;SDS011;9599;53.706;10.384;2022-10-22T05:04:55;78.13;;;16.73;;
18933;SDS011;9599;53.706;10.384;2022-10-22T05:07:23;142.17;;;17.00;;
18933;SDS011;9599;53.706;10.384;2022-10-22T05:09:52;30.20;;;14.10;;
18933;SDS011;9599;53.706;10.384;2022-10-22T05:12:20;31.47;;;14.80;;
18933;SDS011;9599;53.706;10.384;2022-10-22T05:14:48;32.80;;;15.03;;
18933;SDS011;9599;53.706;10.384;2022-10-22T05:17:16;68.90;;;15.73;;
18933;SDS011;9599;53.706;10.384;2022-10-22T05:19:43;30.80;;;13.57;;
18933;SDS011;9599;53.706;10.384;2022-10-22T05:22:13;33.77;;;13.73;;
18933;SDS011;9599;53.706;10.384;2022-10-22T05:24:41;24.90;;;13.57;;
18933;SDS011;9599;53.706;10.384;2022-10-22T05:27:09;54.23;;;15.10;;
18933;SDS011;9599;53.706;10.384;2022-10-22T05:29:37;26.63;;;14.20;;
18933;SDS011;9599;53.706;10.384;2022-10-22T05:32:05;30.90;;;14.80;;
18933;SDS011;9599;53.706;10.384;2022-10-22T05:34:33;36.23;;;14.83;;
18933;SDS011;9599;53.706;10.384;2022-10-22T05:37:02;25.73;;;13.90;;
18933;SDS011;9599;53.706;10.384;2022-10-22T05:39:31;26.30;;;14.43;;
18933;SDS011;9599;53.706;10.384;2022-10-22T05:42:02;29.90;;;14.83;;
18933;SDS011;9599;53.706;10.384;2022-10-22T05:44:30;36.27;;;16.07;;
18933;SDS011;9599;53.706;10.384;2022-10-22T05:46:58;36.87;;;16.40;;
18933;SDS011;9599;53.706;10.384;2022-10-22T05:49:26;36.47;;;16.80;;
18933;SDS011;9599;53.706;10.384;2022-10-22T05:51:54;38.60;;;16.67;;
18933;SDS011;9599;53.706;10.384;2022-10-22T05:54:22;38.20;;;17.03;;
18933;SDS011;9599;53.706;10.384;2022-10-22T05:56:51;40.43;;;16.57;;
18933;SDS011;9599;53.706;10.384;2022-10-22T05:59:20;38.97;;;16.27;;
18933;SDS011;9599;53.706;10.384;2022-10-22T06:01:48;44.93;;;16.93;;
18933;SDS011;9599;53.706;10.384;2022-10-22T06:04:17;37.03;;;16.40;;
18933;SDS011;9599;53.706;10.384;2022-10-22T06:06:45;47.23;;;16.67;;
18933;SDS011;9599;53.706;10.384;2022-10-22T06:09:16;51.83;;;17.17;;
18933;SDS011;9599;53.706;10.384;2022-10-22T06:11:46;35.17;;;16.00;;
18933;SDS011;9599;53.706;10.384;2022-10-22T06:14:17;36.33;;;15.80;;
18933;SDS011;9599;53.706;10.384;2022-10-22T06:16:46;30.80;;;14.60;;
18933;SDS011;9599;53.706;10.384;2022-10-22T06:19:15;31.10;;;15.07;;
18933;SDS011;9599;53.706;10.384;2022-10-22T06:21:46;41.33;;;14.33;;
18933;SDS011;9599;53.706;10.384;2022-10-22T06:24:14;48.87;;;16.23;;
18933;SDS011;9599;53.706;10.384;2022-10-22T06:26:42;38.37;;;15.73;;
18933;SDS011;9599;53.706;10.384;2022-10-22T06:29:10;34.00;;;15.13;;
18933;SDS011;9599;53.706;10.384;2022-10-22T06:31:40;33.60;;;15.53;;
18933;SDS011;9599;53.706;10.384;2022-10-22T06:34:09;51.23;;;15.60;;
18933;SDS011;9599;53.706;10.384;2022-10-22T06:36:38;42.87;;;15.57;;
18933;SDS011;9599;53.706;10.384;2022-10-22T06:39:08;35.03;;;15.70;;
18933;SDS011;9599;53.706;10.384;2022-10-22T06:41:37;84.27;;;17.57;;
18933;SDS011;9599;53.706;10.384;2022-10-22T06:44:06;68.37;;;18.43;;
18933;SDS011;9599;53.706;10.384;2022-10-22T06:46:37;43.67;;;16.77;;
18933;SDS011;9599;53.706;10.384;2022-10-22T06:49:11;43.50;;;16.47;;
18933;SDS011;9599;53.706;10.384;2022-10-22T06:51:42;44.13;;;17.90;;
18933;SDS011;9599;53.706;10.384;2022-10-22T06:54:10;42.67;;;17.53;;
18933;SDS011;9599;53.706;10.384;2022-10-22T06:56:38;44.63;;;17.53;;
18933;SDS011;9599;53.706;10.384;2022-10-22T06:59:07;39.63;;;15.53;;
18933;SDS011;9599;53.706;10.384;2022-10-22T07:01:35;50.53;;;17.50;;
18933;SDS011;9599;53.706;10.384;2022-10-22T07:04:03;48.77;;;18.30;;
18933;SDS011;9599;53.706;10.384;2022-10-22T07:06:33;50.00;;;18.63;;
18933;SDS011;9599;53.706;10.384;2022-10-22T07:09:01;59.40;;;19.83;;
18933;SDS011;9599;53.706;10.384;2022-10-22T07:11:30;50.33;;;19.73;;
18933;SDS011;9599;53.706;10.384;2022-10-22T07:14:04;57.40;;;20.27;;
18933;SDS011;9599;53.706;10.384;2022-10-22T07:16:32;53.20;;;19.37;;
18933;SDS011;9599;53.706;10.384;2022-10-22T07:19:00;103.70;;;20.03;;
18933;SDS011;9599;53.706;10.384;2022-10-22T07:21:30;48.97;;;18.73;;
18933;SDS011;9599;53.706;10.384;2022-10-22T07:23:59;60.67;;;19.40;;
18933;SDS011;9599;53.706;10.384;2022-10-22T07:26:27;55.47;;;19.30;;
18933;SDS011;9599;53.706;10.384;2022-10-22T07:28:58;68.33;;;19.83;;
18933;SDS011;9599;53.706;10.384;2022-10-22T07:31:26;70.50;;;21.07;;
18933;SDS011;9599;53.706;10.384;2022-10-22T07:33:55;68.80;;;20.80;;
18933;SDS011;9599;53.706;10.384;2022-10-22T07:36:22;61.73;;;20.97;;
18933;SDS011;9599;53.706;10.384;2022-10-22T07:38:54;54.90;;;19.73;;
18933;SDS011;9599;53.706;10.384;2022-10-22T07:41:24;57.47;;;20.60;;
18933;SDS011;9599;53.706;10.384;2022-10-22T07:43:53;59.23;;;21.40;;
18933;SDS011;9599;53.706;10.384;2022-10-22T07:46:22;72.47;;;21.70;;
18933;SDS011;9599;53.706;10.384;2022-10-22T07:48:50;68.70;;;21.40;;
18933;SDS011;9599;53.706;10.384;2022-10-22T07:51:18;73.07;;;21.90;;
18933;SDS011;9599;53.706;10.384;2022-10-22T07:53:46;67.70;;;22.87;;
18933;SDS011;9599;53.706;10.384;2022-10-22T07:56:14;71.90;;;23.10;;
18933;SDS011;9599;53.706;10.384;2022-10-22T07:58:44;61.97;;;23.13;;
18933;SDS011;9599;53.706;10.384;2022-10-22T08:01:12;57.50;;;22.43;;
18933;SDS011;9599;53.706;10.384;2022-10-22T08:03:40;72.70;;;24.03;;
18933;SDS011;9599;53.706;10.384;2022-10-22T08:06:08;64.53;;;23.73;;
18933;SDS011;9599;53.706;10.384;2022-10-22T08:08:39;65.43;;;23.40;;
18933;SDS011;9599;53.706;10.384;2022-10-22T08:11:08;66.47;;;24.70;;
18933;SDS011;9599;53.706;10.384;2022-10-22T08:13:37;67.43;;;24.33;;
18933;SDS011;9599;53.706;10.384;2022-10-22T08:16:12;66.90;;;24.47;;
18933;SDS011;9599;53.706;10.384;2022-10-22T08:18:40;61.37;;;23.43;;
18933;SDS011;9599;53.706;10.384;2022-10-22T08:21:08;66.73;;;24.77;;
18933;SDS011;9599;53.706;10.384;2022-10-22T08:23:36;63.67;;;24.47;;
18933;SDS011;9599;53.706;10.384;2022-10-22T08:26:04;63.33;;;24.90;;
18933;SDS011;9599;53.706;10.384;2022-10-22T08:28:32;61.40;;;24.13;;
18933;SDS011;9599;53.706;10.384;2022-10-22T08:31:02;64.27;;;23.97;;
18933;SDS011;9599;53.706;10.384;2022-10-22T08:33:31;59.70;;;23.90;;
18933;SDS011;9599;53.706;10.384;2022-10-22T08:35:59;57.63;;;23.97;;
18933;SDS011;9599;53.706;10.384;2022-10-22T08:38:27;58.53;;;23.60;;
18933;SDS011;9599;53.706;10.384;2022-10-22T08:40:59;57.87;;;23.57;;
18933;SDS011;9599;53.706;10.384;2022-10-22T08:46:38;56.23;;;23.73;;
18933;SDS011;9599;53.706;10.384;2022-10-22T08:49:19;53.80;;;23.23;;
18933;SDS011;9599;53.706;10.384;2022-10-22T08:51:49;55.90;;;23.70;;
18933;SDS011;9599;53.706;10.384;2022-10-22T08:54:20;57.27;;;23.43;;
18933;SDS011;9599;53.706;10.384;2022-10-22T08:56:57;57.97;;;23.97;;
18933;SDS011;9599;53.706;10.384;2022-10-22T08:59:39;52.03;;;23.67;;
18933;SDS011;9599;53.706;10.384;2022-10-22T09:02:16;47.97;;;22.10;;
18933;SDS011;9599;53.706;10.384;2022-10-22T09:04:55;49.40;;;22.90;;
18933;SDS011;9599;53.706;10.384;2022-10-22T09:07:27;50.13;;;22.87;;
18933;SDS011;9599;53.706;10.384;2022-10-22T09:09:55;50.60;;;23.57;;
18933;SDS011;9599;53.706;10.384;2022-10-22T09:12:26;49.00;;;22.30;;
18933;SDS011;9599;53.706;10.384;2022-10-22T09:14:55;47.47;;;22.17;;
18933;SDS011;9599;53.706;10.384;2022-10-22T09:17:25;41.77;;;21.50;;
18933;SDS011;9599;53.706;10.384;2022-10-22T09:20:05;41.83;;;21.97;;
18933;SDS011;9599;53.706;10.384;2022-10-22T09:22:41;35.43;;;20.53;;
18933;SDS011;9599;53.706;10.384;2022-10-22T09:25:15;37.27;;;20.20;;
18933;SDS011;9599;53.706;10.384;2022-10-22T09:27:46;34.70;;;19.00;;
18933;SDS011;9599;53.706;10.384;2022-10-22T09:30:15;34.77;;;18.00;;
18933;SDS011;9599;53.706;10.384;2022-10-22T09:32:45;34.90;;;18.40;;
18933;SDS011;9599;53.706;10.384;2022-10-22T09:35:21;31.17;;;18.37;;
18933;SDS011;9599;53.706;10.384;2022-10-22T09:37:51;30.30;;;17.77;;
18933;SDS011;9599;53.706;10.384;2022-10-22T09:40:21;31.57;;;17.97;;
18933;SDS011;9599;53.706;10.384;2022-10-22T09:42:49;28.03;;;17.27;;
18933;SDS011;9599;53.706;10.384;2022-10-22T09:45:18;31.53;;;17.00;;
18933;SDS011;9599;53.706;10.384;2022-10-22T09:47:50;27.10;;;16.07;;
18933;SDS011;9599;53.706;10.384;2022-10-22T09:50:36;24.73;;;15.70;;
18933;SDS011;9599;53.706;10.384;2022-10-22T09:53:11;26.17;;;15.47;;
18933;SDS011;9599;53.706;10.384;2022-10-22T09:55:41;26.00;;;15.20;;
18933;SDS011;9599;53.706;10.384;2022-10-22T09:58:10;26.73;;;15.93;;
18933;SDS011;9599;53.706;10.384;2022-10-22T10:00:40;26.60;;;16.23;;
18933;SDS011;9599;53.706;10.384;2022-10-22T10:03:14;21.83;;;15.37;;
18933;SDS011;9599;53.706;10.384;2022-10-22T10:05:47;24.50;;;14.97;;
18933;SDS011;9599;53.706;10.384;2022-10-22T10:08:17;24.87;;;15.37;;
18933;SDS011;9599;53.706;10.384;2022-10-22T10:10:46;23.83;;;14.27;;
18933;SDS011;9599;53.706;10.384;2022-10-22T10:13:26;22.90;;;14.43;;
18933;SDS011;9599;53.706;10.384;2022-10-22T10:16:06;21.77;;;14.03;;
18933;SDS011;9599;53.706;10.384;2022-10-22T10:18:42;22.00;;;13.87;;
18933;SDS011;9599;53.706;10.384;2022-10-22T10:21:24;22.47;;;14.37;;
18933;SDS011;9599;53.706;10.384;2022-10-22T10:23:59;18.60;;;12.53;;
18933;SDS011;9599;53.706;10.384;2022-10-22T10:26:36;18.00;;;12.30;;
18933;SDS011;9599;53.706;10.384;2022-10-22T10:29:13;18.37;;;11.70;;
18933;SDS011;9599;53.706;10.384;2022-10-22T10:31:54;17.87;;;11.53;;
18933;SDS011;9599;53.706;10.384;2022-10-22T10:34:32;15.67;;;9.90;;
18933;SDS011;9599;53.706;10.384;2022-10-22T10:37:15;14.80;;;8.83;;
18933;SDS011;9599;53.706;10.384;2022-10-22T10:39:54;15.00;;;8.97;;
18933;SDS011;9599;53.706;10.384;2022-10-22T10:42:39;14.93;;;8.70;;
18933;SDS011;9599;53.706;10.384;2022-10-22T10:45:15;14.30;;;7.80;;
18933;SDS011;9599;53.706;10.384;2022-10-22T10:50:40;11.37;;;7.33;;
18933;SDS011;9599;53.706;10.384;2022-10-22T10:53:19;9.27;;;6.57;;
18933;SDS011;9599;53.706;10.384;2022-10-22T10:55:56;9.20;;;6.37;;
18933;SDS011;9599;53.706;10.384;2022-10-22T10:58:29;9.67;;;6.57;;
18933;SDS011;9599;53.706;10.384;2022-10-22T11:01:09;11.33;;;5.97;;
18933;SDS011;9599;53.706;10.384;2022-10-22T11:03:52;10.30;;;6.43;;
18933;SDS011;9599;53.706;10.384;2022-10-22T11:06:37;12.33;;;6.00;;
18933;SDS011;9599;53.706;10.384;2022-10-22T11:09:09;13.73;;;6.40;;
18933;SDS011;9599;53.706;10.384;2022-10-22T11:11:47;9.17;;;5.90;;
18933;SDS011;9599;53.706;10.384;2022-10-22T11:14:22;9.33;;;6.10;;
18933;SDS011;9599;53.706;10.384;2022-10-22T11:16:57;8.80;;;6.10;;
18933;SDS011;9599;53.706;10.384;2022-10-22T11:19:32;8.40;;;5.20;;
18933;SDS011;9599;53.706;10.384;2022-10-22T11:22:18;11.43;;;5.73;;
18933;SDS011;9599;53.706;10.384;2022-10-22T11:24:54;8.43;;;4.53;;
18933;SDS011;9599;53.706;10.384;2022-10-22T11:27:28;9.23;;;5.10;;
18933;SDS011;9599;53.706;10.384;2022-10-22T11:30:04;11.03;;;4.67;;
18933;SDS011;9599;53.706;10.384;2022-10-22T11:32:38;7.83;;;4.50;;
18933;SDS011;9599;53.706;10.384;2022-10-22T11:35:11;7.60;;;4.23;;
18933;SDS011;9599;53.706;10.384;2022-10-22T11:37:41;9.93;;;3.70;;
18933;SDS011;9599;53.706;10.384;2022-10-22T11:40:14;5.97;;;3.30;;
18933;SDS011;9599;53.706;10.384;2022-10-22T11:42:47;7.23;;;3.10;;
18933;SDS011;9599;53.706;10.384;2022-10-22T11:45:26;7.60;;;3.30;;
18933;SDS011;9599;53.706;10.384;2022-10-22T11:47:57;6.00;;;3.10;;
18933;SDS011;9599;53.706;10.384;2022-10-22T11:50:48;6.13;;;2.70;;
18933;SDS011;9599;53.706;10.384;2022-10-22T11:53:19;5.60;;;3.20;;
18933;SDS011;9599;53.706;10.384;2022-10-22T11:55:57;7.23;;;3.00;;
18933;SDS011;9599;53.706;10.384;2022-10-22T11:58:32;7.90;;;2.90;;
18933;SDS011;9599;53.706;10.384;2022-10-22T12:01:16;6.60;;;2.83;;
18933;SDS011;9599;53.706;10.384;2022-10-22T12:03:49;7.33;;;3.13;;
18933;SDS011;9599;53.706;10.384;2022-10-22T12:06:19;6.23;;;2.70;;
18933;SDS011;9599;53.706;10.384;2022-10-22T12:08:56;7.10;;;2.80;;
18933;SDS011;9599;53.706;10.384;2022-10-22T12:11:28;5.63;;;3.13;;
18933;SDS011;9599;53.706;10.384;2022-10-22T12:14:15;7.77;;;3.33;;
18933;SDS011;9599;53.706;10.384;2022-10-22T12:16:47;6.47;;;2.63;;
18933;SDS011;9599;53.706;10.384;2022-10-22T12:19:24;7.63;;;3.17;;
18933;SDS011;9599;53.706;10.384;2022-10-22T12:21:54;5.23;;;3.20;;
18933;SDS011;9599;53.706;10.384;2022-10-22T12:24:28;8.90;;;2.70;;
18933;SDS011;9599;53.706;10.384;2022-10-22T12:26:59;5.50;;;2.50;;
18933;SDS011;9599;53.706;10.384;2022-10-22T12:29:29;5.97;;;2.60;;
18933;SDS011;9599;53.706;10.384;2022-10-22T12:32:01;8.37;;;2.93;;
18933;SDS011;9599;53.706;10.384;2022-10-22T12:34:30;6.90;;;2.80;;
18933;SDS011;9599;53.706;10.384;2022-10-22T12:36:58;6.97;;;2.63;;
18933;SDS011;9599;53.706;10.384;2022-10-22T12:39:26;4.87;;;2.77;;
18933;SDS011;9599;53.706;10.384;2022-10-22T12:41:55;7.03;;;2.60;;
18933;SDS011;9599;53.706;10.384;2022-10-22T12:44:24;6.17;;;2.40;;
18933;SDS011;9599;53.706;10.384;2022-10-22T12:46:52;6.43;;;3.10;;
18933;SDS011;9599;53.706;10.384;2022-10-22T12:49:24;4.93;;;2.50;;
18933;SDS011;9599;53.706;10.384;2022-10-22T12:51:59;10.20;;;2.63;;
18933;SDS011;9599;53.706;10.384;2022-10-22T12:54:30;5.53;;;2.80;;
18933;SDS011;9599;53.706;10.384;2022-10-22T12:56:59;6.47;;;2.80;;
18933;SDS011;9599;53.706;10.384;2022-10-22T12:59:31;6.83;;;2.50;;
18933;SDS011;9599;53.706;10.384;2022-10-22T13:02:01;5.80;;;2.90;;
18933;SDS011;9599;53.706;10.384;2022-10-22T13:04:38;5.10;;;2.80;;
18933;SDS011;9599;53.706;10.384;2022-10-22T13:07:14;4.33;;;2.60;;
18933;SDS011;9599;53.706;10.384;2022-10-22T13:09:49;7.33;;;2.43;;
18933;SDS011;9599;53.706;10.384;2022-10-22T13:12:24;5.40;;;2.67;;
18933;SDS011;9599;53.706;10.384;2022-10-22T13:14:55;8.30;;;2.73;;
18933;SDS011;9599;53.706;10.384;2022-10-22T13:17:36;5.53;;;2.60;;
18933;SDS011;9599;53.706;10.384;2022-10-22T13:20:14;5.27;;;2.70;;
18933;SDS011;9599;53.706;10.384;2022-10-22T13:22:51;8.93;;;2.93;;
18933;SDS011;9599;53.706;10.384;2022-10-22T13:25:21;5.53;;;2.60;;
18933;SDS011;9599;53.706;10.384;2022-10-22T13:27:52;5.23;;;3.00;;
18933;SDS011;9599;53.706;10.384;2022-10-22T13:30:23;4.07;;;3.00;;
18933;SDS011;9599;53.706;10.384;2022-10-22T13:32:54;5.97;;;2.73;;
18933;SDS011;9599;53.706;10.384;2022-10-22T13:35:25;4.93;;;3.00;;
18933;SDS011;9599;53.706;10.384;2022-10-22T13:37:55;6.40;;;2.83;;
18933;SDS011;9599;53.706;10.384;2022-10-22T13:40:23;6.43;;;3.00;;
18933;SDS011;9599;53.706;10.384;2022-10-22T13:42:51;6.27;;;3.50;;
18933;SDS011;9599;53.706;10.384;2022-10-22T13:45:19;7.30;;;3.80;;
18933;SDS011;9599;53.706;10.384;2022-10-22T13:47:50;3.93;;;3.37;;
18933;SDS011;9599;53.706;10.384;2022-10-22T13:50:20;6.07;;;3.70;;
18933;SDS011;9599;53.706;10.384;2022-10-22T13:52:49;4.93;;;3.70;;
18933;SDS011;9599;53.706;10.384;2022-10-22T13:55:19;4.20;;;3.80;;
18933;SDS011;9599;53.706;10.384;2022-10-22T13:57:50;6.97;;;4.33;;
18933;SDS011;9599;53.706;10.384;2022-10-22T14:00:19;5.43;;;3.97;;
18933;SDS011;9599;53.706;10.384;2022-10-22T14:02:51;9.27;;;4.30;;
18933;SDS011;9599;53.706;10.384;2022-10-22T14:05:20;6.57;;;4.10;;
18933;SDS011;9599;53.706;10.384;2022-10-22T14:07:49;6.87;;;4.00;;
18933;SDS011;9599;53.706;10.384;2022-10-22T14:10:19;5.37;;;4.10;;
18933;SDS011;9599;53.706;10.384;2022-10-22T14:12:48;7.87;;;4.40;;
18933;SDS011;9599;53.706;10.384;2022-10-22T14:15:20;6.27;;;4.50;;
18933;SDS011;9599;53.706;10.384;2022-10-22T14:17:52;6.30;;;4.67;;
18933;SDS011;9599;53.706;10.384;2022-10-22T14:20:23;6.23;;;4.70;;
18933;SDS011;9599;53.706;10.384;2022-10-22T14:22:54;7.83;;;4.50;;
18933;SDS011;9599;53.706;10.384;2022-10-22T14:25:23;4.30;;;3.90;;
18933;SDS011;9599;53.706;10.384;2022-10-22T14:27:53;6.10;;;4.13;;
18933;SDS011;9599;53.706;10.384;2022-10-22T14:30:22;5.60;;;4.13;;
18933;SDS011;9599;53.706;10.384;2022-10-22T14:32:52;5.17;;;4.00;;
18933;SDS011;9599;53.706;10.384;2022-10-22T14:35:21;4.77;;;4.10;;
18933;SDS011;9599;53.706;10.384;2022-10-22T14:37:49;5.93;;;4.00;;
18933;SDS011;9599;53.706;10.384;2022-10-22T14:40:18;8.33;;;5.07;;
18933;SDS011;9599;53.706;10.384;2022-10-22T14:42:47;6.00;;;3.90;;
18933;SDS011;9599;53.706;10.384;2022-10-22T14:45:16;6.77;;;3.90;;
18933;SDS011;9599;53.706;10.384;2022-10-22T14:47:46;5.30;;;3.33;;
18933;SDS011;9599;53.706;10.384;2022-10-22T14:50:16;4.53;;;3.23;;
18933;SDS011;9599;53.706;10.384;2022-10-22T14:52:44;7.87;;;3.40;;
18933;SDS011;9599;53.706;10.384;2022-10-22T14:55:13;6.37;;;3.50;;
18933;SDS011;9599;53.706;10.384;2022-10-22T14:57:42;5.00;;;3.70;;
18933;SDS011;9599;53.706;10.384;2022-10-22T15:00:11;11.03;;;4.20;;
18933;SDS011;9599;53.706;10.384;2022-10-22T15:02:41;5.80;;;3.60;;